Time;durP1;ratioP1;P1;durP2;ratioP2;P2;SDS_P1;SDS_P2;PMS_P1;PMS_P2;Temp;Humidity;BMP_temperature;BMP_pressure;BME280_temperature;BME280_humidity;BME280_pressure;Samples;Min_cycle;Max_cycle;Signal;HPM_P1;HPM_P2
2023/01/24 00:02:22;;;;;;;;;;;0.70;99.90;;;;;;5037467;28;19922;-82
2023/01/24 00:04:48;;;;;;;;;;;0.70;99.90;;;;;;5020325;28;19914;-83
2023/01/24 00:07:13;;;;;;;;;;;0.70;99.90;;;;;;5030210;28;19909;-82
2023/01/24 00:09:39;;;;;;;;;;;0.70;99.90;;;;;;5039344;28;20106;-83
2023/01/24 00:12:04;;;;;;;;;;;0.70;99.90;;;;;;5021163;28;19913;-82
2023/01/24 00:14:30;;;;;;;;;;;0.80;99.90;;;;;;5049389;28;19941;-82
2023/01/24 00:16:55;;;;;;;;;;;0.80;99.90;;;;;;5050577;28;19913;-80
2023/01/24 00:19:21;;;;;;;;;;;0.80;99.90;;;;;;5053461;28;19924;-81
2023/01/24 00:21:47;;;;;;;;;;;0.80;99.90;;;;;;5043155;28;19913;-81
2023/01/24 00:24:12;;;;;;;;;;;0.80;99.90;;;;;;5034262;28;19937;-82
2023/01/24 00:26:38;;;;;;;;;;;0.80;99.90;;;;;;5033422;28;19909;-81
2023/01/24 00:29:04;;;;;;;;;;;0.80;99.90;;;;;;5033638;28;19916;-81
2023/01/24 00:31:30;;;;;;;;;;;0.80;99.90;;;;;;5025799;28;19920;-82
2023/01/24 00:33:55;;;;;;;;;;;0.80;99.90;;;;;;5038015;28;20017;-81
2023/01/24 00:36:21;;;;;;;;;;;0.80;99.90;;;;;;5025431;28;19910;-82
2023/01/24 00:38:46;;;;;;;;;;;0.80;99.90;;;;;;5020843;28;19925;-82
2023/01/24 00:41:12;;;;;;;;;;;0.80;99.90;;;;;;5020732;28;19914;-82
2023/01/24 00:43:37;;;;;;;;;;;0.80;99.90;;;;;;5023953;28;19913;-82
2023/01/24 00:46:07;;;;;;;;;;;0.80;99.90;;;;;;5034943;28;19909;-82
2023/01/24 00:48:32;;;;;;;;;;;0.80;99.90;;;;;;5037106;28;19909;-80
2023/01/24 00:50:58;;;;;;;;;;;0.80;99.90;;;;;;5037048;28;19902;-80
2023/01/24 00:53:25;;;;;;;;;;;0.80;99.90;;;;;;5037014;28;19901;-81
2023/01/24 00:55:52;;;;;;;;;;;0.90;99.90;;;;;;5036626;28;19960;-82
2023/01/24 00:58:17;;;;;;;;;;;0.90;99.90;;;;;;5036702;28;19914;-82
2023/01/24 01:00:43;;;;;;;;;;;0.80;99.90;;;;;;5035983;28;19909;-81
2023/01/24 01:03:12;;;;;;;;;;;0.80;99.90;;;;;;5033131;28;19920;-83
2023/01/24 01:05:42;;;;;;;;;;;0.80;99.90;;;;;;5031234;28;19920;-83
2023/01/24 01:08:08;;;;;;;;;;;0.80;99.90;;;;;;5021652;28;19913;-83
2023/01/24 01:10:34;;;;;;;;;;;0.80;99.90;;;;;;5020553;28;19915;-83
2023/01/24 01:13:00;;;;;;;;;;;0.80;99.90;;;;;;5035409;28;19913;-83
2023/01/24 01:15:25;;;;;;;;;;;0.80;99.90;;;;;;5038943;28;20384;-83
2023/01/24 01:17:51;;;;;;;;;;;0.90;99.90;;;;;;5051984;28;19909;-83
2023/01/24 01:20:16;;;;;;;;;;;0.90;99.90;;;;;;5053786;28;19928;-83
2023/01/24 01:22:42;;;;;;;;;;;0.90;99.90;;;;;;5053887;28;19909;-82
2023/01/24 01:25:08;;;;;;;;;;;0.80;99.90;;;;;;5045605;28;19917;-82
2023/01/24 01:27:33;;;;;;;;;;;0.80;99.90;;;;;;5043314;28;19909;-83
2023/01/24 01:29:59;;;;;;;;;;;0.80;99.90;;;;;;5043471;28;19914;-83
2023/01/24 01:32:24;;;;;;;;;;;0.80;99.90;;;;;;5042107;28;19909;-82
2023/01/24 01:34:50;;;;;;;;;;;0.80;99.90;;;;;;5040329;28;19901;-82
2023/01/24 01:37:15;;;;;;;;;;;0.80;99.90;;;;;;5050868;28;19939;-81
2023/01/24 01:39:42;;;;;;;;;;;0.70;99.90;;;;;;5049723;28;20031;-81
2023/01/24 01:42:07;;;;;;;;;;;0.70;99.90;;;;;;5039444;28;19975;-83
2023/01/24 01:44:40;;;;;;;;;;;0.70;99.90;;;;;;5040065;28;19913;-82
2023/01/24 01:47:24;;;;;;;;;;;0.70;99.90;;;;;;4999348;28;19913;-83
2023/01/24 01:49:52;;;;;;;;;;;0.70;99.90;;;;;;4999465;28;19916;-83
2023/01/24 01:52:18;;;;;;;;;;;0.80;99.90;;;;;;4998526;28;19910;-83
2023/01/24 01:54:45;;;;;;;;;;;0.70;99.90;;;;;;4999351;28;19987;-83
2023/01/24 01:57:16;;;;;;;;;;;0.70;99.90;;;;;;5050140;28;19968;-82
2023/01/24 01:59:45;;;;;;;;;;;0.70;99.90;;;;;;5054365;28;19912;-81
2023/01/24 02:02:11;;;;;;;;;;;0.70;99.90;;;;;;5045070;28;19909;-82
2023/01/24 02:04:39;;;;;;;;;;;0.70;99.90;;;;;;5029142;28;19977;-82
2023/01/24 02:07:14;;;;;;;;;;;0.70;99.90;;;;;;5047048;28;19920;-83
2023/01/24 02:09:40;;;;;;;;;;;0.70;99.90;;;;;;5050660;28;19910;-81
2023/01/24 02:12:11;;;;;;;;;;;0.70;99.90;;;;;;5044293;28;19920;-82
2023/01/24 02:17:22;;;;;;;;;;;0.70;99.90;;;;;;5027505;28;19920;-82
2023/01/24 02:19:54;;;;;;;;;;;0.70;99.90;;;;;;5034128;28;19917;-81
2023/01/24 02:22:25;;;;;;;;;;;0.80;99.90;;;;;;5017018;28;20362;-84
2023/01/24 02:25:13;;;;;;;;;;;0.80;99.90;;;;;;5016722;28;19909;-82
2023/01/24 02:27:39;;;;;;;;;;;0.80;99.90;;;;;;5028754;28;19924;-82
2023/01/24 02:30:05;;;;;;;;;;;0.90;99.90;;;;;;5035248;28;20246;-81
2023/01/24 02:32:30;;;;;;;;;;;0.90;99.90;;;;;;5032792;28;19920;-81
2023/01/24 02:34:57;;;;;;;;;;;0.90;99.90;;;;;;5028267;28;19916;-82
2023/01/24 02:37:23;;;;;;;;;;;0.90;99.90;;;;;;5031495;28;20382;-82
2023/01/24 02:40:19;;;;;;;;;;;0.90;99.90;;;;;;5016603;28;19924;-81
2023/01/24 02:42:45;;;;;;;;;;;0.80;99.90;;;;;;5015182;28;19913;-83
2023/01/24 02:45:34;;;;;;;;;;;0.80;99.90;;;;;;5014565;28;19914;-82
2023/01/24 02:48:24;;;;;;;;;;;0.80;99.90;;;;;;5025914;28;20141;-82
2023/01/24 02:53:57;;;;;;;;;;;0.80;99.90;;;;;;5039453;28;19951;-82
2023/01/24 02:59:10;;;;;;;;;;;0.80;99.90;;;;;;5040558;28;19948;-81
2023/01/24 03:04:31;;;;;;;;;;;0.80;99.90;;;;;;5042474;28;19924;-81
2023/01/24 03:07:00;;;;;;;;;;;0.80;99.90;;;;;;5053901;28;19901;-81
2023/01/24 03:09:49;;;;;;;;;;;0.80;99.90;;;;;;5017011;28;19917;-81
2023/01/24 03:36:56;;;;;;;;;;;0.80;99.90;;;;;;5024049;28;19936;-82
2023/01/24 03:42:05;;;;;;;;;;;0.90;99.90;;;;;;5058634;28;19967;-82
2023/01/24 03:44:31;;;;;;;;;;;0.80;99.90;;;;;;5057606;28;19913;-82
2023/01/24 03:46:56;;;;;;;;;;;0.90;99.90;;;;;;5047106;28;20389;-83
2023/01/24 03:54:50;;;;;;;;;;;0.90;99.90;;;;;;5034126;28;19952;-82
2023/01/24 03:57:16;;;;;;;;;;;0.90;99.90;;;;;;5029604;28;19940;-82
2023/01/24 03:59:41;;;;;;;;;;;0.90;99.90;;;;;;5022913;28;19921;-83
2023/01/24 04:02:07;;;;;;;;;;;0.80;99.90;;;;;;5039400;28;19956;-82
2023/01/24 04:05:12;;;;;;;;;;;0.80;99.90;;;;;;5020482;28;19920;-83
2023/01/24 04:07:19;;;;;;;;;;;0.90;99.90;;;;;;4999951;28;19921;-82
2023/01/24 04:09:45;;;;;;;;;;;0.90;99.90;;;;;;5015975;28;19917;-83
2023/01/24 04:12:10;;;;;;;;;;;0.90;99.90;;;;;;5019945;28;19913;-82
2023/01/24 04:14:36;;;;;;;;;;;0.90;99.90;;;;;;5020051;28;19917;-83
2023/01/24 04:17:01;;;;;;;;;;;0.80;99.90;;;;;;5019241;28;19932;-79
2023/01/24 04:19:27;;;;;;;;;;;0.80;99.90;;;;;;5021707;28;19929;-79
2023/01/24 04:21:52;;;;;;;;;;;0.80;99.90;;;;;;5015805;28;19909;-80
2023/01/24 04:24:18;;;;;;;;;;;0.80;99.90;;;;;;5016677;28;19914;-80
2023/01/24 04:26:43;;;;;;;;;;;0.90;99.90;;;;;;5021326;28;20255;-78
2023/01/24 04:29:11;;;;;;;;;;;0.80;99.90;;;;;;5024137;28;19909;-79
2023/01/24 04:31:39;;;;;;;;;;;0.80;99.90;;;;;;5036604;28;20129;-79
2023/01/24 04:34:05;;;;;;;;;;;0.80;99.90;;;;;;5026975;28;19909;-81
2023/01/24 04:36:33;;;;;;;;;;;0.90;99.90;;;;;;5030296;28;19909;-78
2023/01/24 04:38:58;;;;;;;;;;;0.90;99.90;;;;;;5033702;28;19910;-79
2023/01/24 04:41:24;;;;;;;;;;;0.90;99.90;;;;;;5015281;28;20024;-79
2023/01/24 04:43:49;;;;;;;;;;;0.90;99.90;;;;;;5014654;28;20004;-79
2023/01/24 04:46:15;;;;;;;;;;;0.80;99.90;;;;;;5019071;28;19917;-78
2023/01/24 04:48:42;;;;;;;;;;;0.80;99.90;;;;;;5023023;28;19909;-77
2023/01/24 04:51:09;;;;;;;;;;;0.80;99.90;;;;;;5032129;28;19910;-82
2023/01/24 04:53:37;;;;;;;;;;;0.90;99.90;;;;;;5036469;28;19912;-82
2023/01/24 04:56:03;;;;;;;;;;;0.90;99.90;;;;;;5036757;28;19901;-84
2023/01/24 04:58:28;;;;;;;;;;;0.80;99.90;;;;;;5037024;28;19933;-83
2023/01/24 05:00:55;;;;;;;;;;;0.80;99.90;;;;;;5020539;28;19914;-83
2023/01/24 05:03:20;;;;;;;;;;;0.80;99.90;;;;;;5026157;28;19939;-82
2023/01/24 05:05:50;;;;;;;;;;;0.90;99.90;;;;;;5034021;28;19916;-84
2023/01/24 05:08:15;;;;;;;;;;;0.90;99.90;;;;;;5040117;28;19921;-83
2023/01/24 05:10:41;;;;;;;;;;;0.90;99.90;;;;;;5019990;28;19910;-82
2023/01/24 05:13:06;;;;;;;;;;;0.90;99.90;;;;;;5024494;28;19913;-81
2023/01/24 05:15:32;;;;;;;;;;;0.90;99.90;;;;;;5039961;28;19936;-83
2023/01/24 05:17:57;;;;;;;;;;;1.00;99.90;;;;;;5038499;28;19917;-82
2023/01/24 05:20:23;;;;;;;;;;;1.00;99.90;;;;;;5037985;28;19917;-83
2023/01/24 05:22:49;;;;;;;;;;;1.00;99.90;;;;;;5030666;28;20009;-83
2023/01/24 05:25:15;;;;;;;;;;;1.00;99.90;;;;;;5019745;28;19909;-83
2023/01/24 05:27:40;;;;;;;;;;;1.00;99.90;;;;;;5019673;28;19916;-83
2023/01/24 05:30:06;;;;;;;;;;;1.00;99.90;;;;;;5020517;28;20230;-82
2023/01/24 05:32:32;;;;;;;;;;;1.00;99.90;;;;;;5018989;28;19937;-84
2023/01/24 05:34:57;;;;;;;;;;;1.00;99.90;;;;;;5030202;28;19909;-83
2023/01/24 05:37:23;;;;;;;;;;;1.00;99.90;;;;;;5040147;28;19976;-83
2023/01/24 05:39:48;;;;;;;;;;;1.00;99.90;;;;;;5038256;28;19913;-82
2023/01/24 05:42:14;;;;;;;;;;;1.00;99.90;;;;;;5039129;28;19909;-82
2023/01/24 05:44:40;;;;;;;;;;;1.00;99.90;;;;;;5021437;28;19919;-83
2023/01/24 05:47:05;;;;;;;;;;;1.00;99.90;;;;;;5020802;28;19916;-81
2023/01/24 05:49:31;;;;;;;;;;;1.00;99.90;;;;;;5034738;28;19912;-81
2023/01/24 05:51:56;;;;;;;;;;;1.10;99.90;;;;;;5046546;28;19924;-81
2023/01/24 05:54:22;;;;;;;;;;;1.10;99.90;;;;;;5037003;28;19932;-84
2023/01/24 05:56:55;;;;;;;;;;;1.10;99.90;;;;;;5022132;28;19913;-85
2023/01/24 05:59:20;;;;;;;;;;;1.10;99.90;;;;;;5017619;28;19932;-85
2023/01/24 06:01:46;;;;;;;;;;;1.00;99.90;;;;;;5018056;28;19909;-83
2023/01/24 06:04:11;;;;;;;;;;;1.10;99.90;;;;;;5031371;28;19965;-82
2023/01/24 06:06:37;;;;;;;;;;;1.10;99.90;;;;;;5029521;28;19913;-84
2023/01/24 06:09:03;;;;;;;;;;;1.10;99.90;;;;;;5027747;28;19913;-84
2023/01/24 06:11:29;;;;;;;;;;;1.10;99.90;;;;;;5023091;28;19940;-84
2023/01/24 06:13:55;;;;;;;;;;;1.20;99.90;;;;;;5033456;28;19937;-83
2023/01/24 06:16:22;;;;;;;;;;;1.20;99.90;;;;;;5034182;28;19917;-83
2023/01/24 06:18:48;;;;;;;;;;;1.20;99.90;;;;;;5024990;28;19933;-85
2023/01/24 06:21:16;;;;;;;;;;;1.10;99.90;;;;;;5019809;28;19957;-84
2023/01/24 06:23:42;;;;;;;;;;;1.10;99.90;;;;;;5023024;28;19940;-84
2023/01/24 06:26:11;;;;;;;;;;;1.10;99.90;;;;;;5020903;28;19914;-83
2023/01/24 06:28:37;;;;;;;;;;;1.20;99.90;;;;;;5035536;28;19909;-84
2023/01/24 06:31:04;;;;;;;;;;;1.20;99.90;;;;;;5020798;28;19940;-84
2023/01/24 06:33:53;;;;;;;;;;;1.20;99.90;;;;;;5029035;28;19913;-86
2023/01/24 06:36:26;;;;;;;;;;;1.20;99.90;;;;;;4997370;28;20049;-84
2023/01/24 06:38:52;;;;;;;;;;;1.20;99.90;;;;;;5000008;28;20014;-85
2023/01/24 06:41:17;;;;;;;;;;;1.20;99.90;;;;;;4998630;28;20422;-84
2023/01/24 06:43:44;;;;;;;;;;;1.20;99.90;;;;;;5015601;28;19913;-84
2023/01/24 06:46:10;;;;;;;;;;;1.20;99.90;;;;;;5040420;28;20047;-84
2023/01/24 06:48:35;;;;;;;;;;;1.20;99.90;;;;;;5049429;28;19905;-83
2023/01/24 06:51:01;;;;;;;;;;;1.20;99.90;;;;;;5053178;28;19920;-82
2023/01/24 06:53:26;;;;;;;;;;;1.30;99.90;;;;;;5056466;28;19924;-84
2023/01/24 06:55:52;;;;;;;;;;;1.30;99.90;;;;;;5056338;28;19933;-83
2023/01/24 06:58:17;;;;;;;;;;;1.30;99.90;;;;;;5056526;28;19901;-83
2023/01/24 07:00:43;;;;;;;;;;;1.30;99.90;;;;;;5059525;28;19913;-84
2023/01/24 07:03:09;;;;;;;;;;;1.30;99.90;;;;;;5059974;28;19901;-84
2023/01/24 07:05:35;;;;;;;;;;;1.30;99.90;;;;;;5042098;28;19947;-83
2023/01/24 07:08:01;;;;;;;;;;;1.30;99.90;;;;;;5053262;28;19944;-82
2023/01/24 07:10:28;;;;;;;;;;;1.30;99.90;;;;;;5043788;28;19916;-82
2023/01/24 07:12:54;;;;;;;;;;;1.30;99.90;;;;;;5046565;28;20020;-82
2023/01/24 07:15:19;;;;;;;;;;;1.30;99.90;;;;;;5046436;28;19909;-84
2023/01/24 07:17:45;;;;;;;;;;;1.40;99.90;;;;;;5042554;28;19963;-84
2023/01/24 07:31:26;;;;;;;;;;;1.40;99.90;;;;;;5061289;23;19929;-83
2023/01/24 07:34:10;;;;;;;;;;;;;;;;;;;;;
2023/01/24 07:39:20;;;;;;;;;;;1.50;99.90;;;;;;5029191;28;19963;-84
2023/01/24 07:42:23;;;;;;;;;;;1.50;99.90;;;;;;5044416;28;19909;-85
2023/01/24 07:50:00;;;;;;;;;;;1.50;99.90;;;;;;4795818;26;19927;-83
2023/01/24 07:52:50;;;;;;;;;;;1.50;99.90;;;;;;4949065;29;19917;-84
2023/01/24 07:55:23;;;;;;;;;;;1.50;99.90;;;;;;4962015;28;20386;-84
2023/01/24 07:58:04;;;;;;;;;;;1.50;99.90;;;;;;4945951;29;19910;-84
2023/01/24 08:06:26;;;;;;;;;;;1.50;99.90;;;;;;4958815;29;20338;-84
2023/01/24 08:08:57;;;;;;;;;;;1.60;99.90;;;;;;4979617;28;20348;-83
2023/01/24 08:11:35;;;;;;;;;;;1.60;99.90;;;;;;4980869;28;19944;-83
2023/01/24 08:14:20;;;;;;;;;;;;;;;;;;;;;
2023/01/24 10:50:54;;;;;;;;;;;2.30;99.90;;;;;;4925364;29;19915;-84
2023/01/24 11:16:57;;;;;;;;;;;2.40;99.90;;;;;;4940264;28;19965;-84
2023/01/24 11:19:31;;;;;;;;;;;2.40;99.90;;;;;;4983190;28;19918;-84
2023/01/24 11:21:58;;;;;;;;;;;2.40;99.90;;;;;;4984838;28;19991;-84
2023/01/24 11:24:25;;;;;;;;;;;2.40;99.90;;;;;;4965148;28;20340;-84
2023/01/24 11:27:03;;;;;;;;;;;2.30;99.90;;;;;;4991788;28;19914;-84
2023/01/24 11:29:29;;;;;;;;;;;2.30;99.90;;;;;;4995615;28;19946;-85
2023/01/24 11:31:56;;;;;;;;;;;2.20;99.90;;;;;;4977982;28;19921;-84
2023/01/24 11:34:21;;;;;;;;;;;2.20;99.90;;;;;;4975106;28;19910;-85
2023/01/24 11:37:06;;;;;;;;;;;2.20;99.90;;;;;;4992377;28;19905;-84
2023/01/24 11:39:56;;;;;;;;;;;2.20;99.90;;;;;;4997510;28;19949;-84
2023/01/24 11:42:52;;;;;;;;;;;2.20;99.90;;;;;;4995478;28;19914;-85
2023/01/24 11:45:37;;;;;;;;;;;2.30;99.90;;;;;;4997088;28;19978;-85
2023/01/24 11:48:06;;;;;;;;;;;2.40;99.90;;;;;;5000282;28;19918;-84
2023/01/24 11:50:32;;;;;;;;;;;2.40;99.90;;;;;;4999208;28;19902;-83
2023/01/24 11:53:09;;;;;;;;;;;2.50;99.90;;;;;;4999599;28;19961;-83
2023/01/24 11:55:41;;;;;;;;;;;2.50;99.90;;;;;;4981480;28;19914;-85
2023/01/24 11:58:06;;;;;;;;;;;2.50;99.90;;;;;;4976633;28;19921;-85
2023/01/24 12:00:49;;;;;;;;;;;2.50;99.90;;;;;;4975480;28;20016;-84
2023/01/24 12:03:15;;;;;;;;;;;2.50;99.90;;;;;;4989997;28;19942;-84
2023/01/24 12:06:01;;;;;;;;;;;2.50;99.90;;;;;;4972858;28;20371;-83
2023/01/24 12:08:35;;;;;;;;;;;2.60;99.90;;;;;;4961191;28;19910;-84
2023/01/24 12:11:20;;;;;;;;;;;2.60;99.90;;;;;;4992450;28;19910;-84
2023/01/24 12:13:57;;;;;;;;;;;2.60;99.90;;;;;;4988719;28;19985;-83
2023/01/24 12:16:42;;;;;;;;;;;2.60;99.90;;;;;;4982978;28;19910;-84
2023/01/24 12:19:10;;;;;;;;;;;2.60;99.90;;;;;;4966298;28;19981;-85
2023/01/24 12:21:36;;;;;;;;;;;2.60;99.90;;;;;;4984873;28;19920;-84
2023/01/24 12:24:11;;;;;;;;;;;2.70;99.90;;;;;;4984527;28;19945;-86
2023/01/24 12:26:41;;;;;;;;;;;2.70;99.90;;;;;;4984179;28;19914;-83
2023/01/24 12:29:13;;;;;;;;;;;2.70;99.90;;;;;;4966125;28;19914;-84
2023/01/24 12:31:45;;;;;;;;;;;2.70;99.90;;;;;;4965337;28;19972;-83
2023/01/24 12:34:29;;;;;;;;;;;2.60;99.90;;;;;;4982210;28;19921;-82
2023/01/24 12:36:58;;;;;;;;;;;2.60;99.90;;;;;;4982307;28;19921;-84
2023/01/24 12:39:27;;;;;;;;;;;2.60;99.90;;;;;;4980277;28;19913;-84
2023/01/24 12:42:01;;;;;;;;;;;2.60;99.90;;;;;;4982002;28;19914;-86
2023/01/24 12:44:32;;;;;;;;;;;2.60;99.90;;;;;;4981699;28;19910;-84
2023/01/24 12:47:02;;;;;;;;;;;2.70;99.90;;;;;;4981098;28;19910;-86
2023/01/24 12:49:37;;;;;;;;;;;2.60;99.90;;;;;;4981021;28;20295;-85
2023/01/24 12:52:14;;;;;;;;;;;2.70;99.90;;;;;;4967925;28;20299;-83
2023/01/24 12:54:59;;;;;;;;;;;2.70;99.90;;;;;;4995488;28;19958;-84
2023/01/24 12:57:34;;;;;;;;;;;2.60;99.90;;;;;;4995309;28;19918;-82
2023/01/24 13:00:00;;;;;;;;;;;2.60;99.90;;;;;;4995952;28;19914;-83
2023/01/24 13:02:38;;;;;;;;;;;2.70;99.90;;;;;;4985982;28;19910;-85
2023/01/24 13:05:03;;;;;;;;;;;2.70;99.90;;;;;;4965105;28;19924;-85
2023/01/24 13:07:35;;;;;;;;;;;2.70;99.90;;;;;;4981981;28;19949;-84
2023/01/24 13:10:09;;;;;;;;;;;2.70;99.90;;;;;;4963896;28;19910;-85
2023/01/24 13:12:35;;;;;;;;;;;2.70;99.90;;;;;;4980681;28;19918;-84
2023/01/24 13:15:05;;;;;;;;;;;2.60;99.90;;;;;;4981469;28;19929;-85
2023/01/24 13:17:37;;;;;;;;;;;2.70;99.90;;;;;;4983739;28;19911;-83
2023/01/24 13:20:05;;;;;;;;;;;2.70;99.90;;;;;;4976058;28;19918;-83
2023/01/24 13:22:40;;;;;;;;;;;2.60;99.90;;;;;;4990997;28;19933;-84
2023/01/24 13:25:06;;;;;;;;;;;2.60;99.90;;;;;;4977748;28;19910;-82
2023/01/24 13:27:43;;;;;;;;;;;2.60;99.90;;;;;;4980814;28;19906;-81
2023/01/24 13:30:09;;;;;;;;;;;2.60;99.90;;;;;;4980195;28;19902;-81
2023/01/24 13:32:38;;;;;;;;;;;2.60;99.90;;;;;;4975674;28;19961;-84
2023/01/24 13:35:14;;;;;;;;;;;2.60;99.90;;;;;;4986320;28;19918;-87
2023/01/24 13:37:40;;;;;;;;;;;2.60;99.90;;;;;;4988226;28;19990;-85
2023/01/24 13:40:27;;;;;;;;;;;2.60;99.90;;;;;;4997050;28;19973;-81
2023/01/24 13:42:53;;;;;;;;;;;2.60;99.90;;;;;;4991076;28;20042;-81
2023/01/24 13:45:31;;;;;;;;;;;2.50;99.90;;;;;;4994655;28;19909;-82
2023/01/24 13:47:59;;;;;;;;;;;2.60;99.90;;;;;;4992548;28;19973;-83
2023/01/24 13:50:25;;;;;;;;;;;2.60;99.90;;;;;;4997366;28;19925;-82
2023/01/24 13:52:57;;;;;;;;;;;2.60;99.90;;;;;;4997725;28;19941;-82
2023/01/24 13:55:23;;;;;;;;;;;2.60;99.90;;;;;;4996610;28;19918;-83
2023/01/24 13:58:12;;;;;;;;;;;2.60;99.90;;;;;;4996730;28;19950;-82
2023/01/24 14:00:41;;;;;;;;;;;2.60;99.90;;;;;;4975957;28;19981;-85
2023/01/24 14:03:16;;;;;;;;;;;2.60;99.90;;;;;;4976005;28;19914;-82
2023/01/24 14:05:43;;;;;;;;;;;2.60;99.90;;;;;;4979242;28;19922;-82
2023/01/24 14:08:32;;;;;;;;;;;2.50;99.90;;;;;;4969543;28;20294;-83
2023/01/24 14:11:03;;;;;;;;;;;2.50;99.90;;;;;;4984346;28;19942;-86
2023/01/24 14:13:41;;;;;;;;;;;2.50;99.90;;;;;;4984420;28;19921;-84
2023/01/24 14:16:10;;;;;;;;;;;2.50;99.90;;;;;;4985732;28;19987;-86
2023/01/24 14:18:41;;;;;;;;;;;2.50;99.90;;;;;;4969111;28;19973;-85
2023/01/24 14:21:17;;;;;;;;;;;2.50;99.90;;;;;;4972374;28;19921;-83
2023/01/24 14:23:44;;;;;;;;;;;2.50;99.90;;;;;;4967853;28;19910;-85
2023/01/24 14:26:14;;;;;;;;;;;2.60;99.90;;;;;;4985972;28;19910;-85
2023/01/24 14:28:45;;;;;;;;;;;2.60;99.90;;;;;;4988292;28;19941;-84
2023/01/24 14:31:23;;;;;;;;;;;2.60;99.90;;;;;;4963310;28;20004;-82
2023/01/24 14:34:19;;;;;;;;;;;2.60;99.90;;;;;;4973124;28;19911;-83
2023/01/24 14:36:59;;;;;;;;;;;2.50;99.90;;;;;;4978836;28;19914;-84
2023/01/24 14:39:45;;;;;;;;;;;2.50;99.90;;;;;;4964126;28;20342;-84
2023/01/24 14:42:12;;;;;;;;;;;2.50;99.90;;;;;;4981765;28;19914;-83
2023/01/24 14:44:58;;;;;;;;;;;2.40;99.90;;;;;;4974842;28;19919;-85
2023/01/24 14:47:29;;;;;;;;;;;2.40;99.90;;;;;;4994707;28;19914;-84
2023/01/24 14:50:02;;;;;;;;;;;2.40;99.90;;;;;;4951076;28;19956;-83
2023/01/24 14:52:27;;;;;;;;;;;2.40;99.90;;;;;;4968015;28;19946;-80
2023/01/24 14:54:54;;;;;;;;;;;2.40;99.90;;;;;;4991616;28;19925;-81
2023/01/24 14:57:21;;;;;;;;;;;2.30;99.90;;;;;;4992557;28;19998;-81
2023/01/24 14:59:57;;;;;;;;;;;2.30;99.90;;;;;;4967432;28;19914;-81
2023/01/24 15:02:23;;;;;;;;;;;2.30;99.90;;;;;;4985004;28;19910;-81
2023/01/24 15:04:54;;;;;;;;;;;2.20;99.90;;;;;;4985654;28;19922;-80
2023/01/24 15:07:21;;;;;;;;;;;2.30;99.90;;;;;;4965849;28;19918;-80
2023/01/24 15:09:47;;;;;;;;;;;2.20;99.90;;;;;;4984208;28;19918;-82
2023/01/24 15:12:31;;;;;;;;;;;2.20;99.90;;;;;;4992836;28;19914;-78
2023/01/24 15:14:58;;;;;;;;;;;2.10;99.90;;;;;;4974405;28;19921;-82
2023/01/24 15:17:28;;;;;;;;;;;2.00;99.90;;;;;;4993673;28;19930;-79
2023/01/24 15:19:59;;;;;;;;;;;2.00;99.90;;;;;;4978602;28;19965;-81
2023/01/24 15:22:42;;;;;;;;;;;2.00;99.90;;;;;;4999737;28;20034;-79
2023/01/24 15:25:34;;;;;;;;;;;2.00;99.90;;;;;;4982027;28;19914;-79
2023/01/24 15:28:23;;;;;;;;;;;2.00;99.90;;;;;;4980469;28;19903;-79
2023/01/24 15:31:00;;;;;;;;;;;2.00;99.90;;;;;;4997704;28;19924;-82
2023/01/24 15:33:42;;;;;;;;;;;2.00;99.90;;;;;;4994424;28;19911;-80
2023/01/24 15:36:20;;;;;;;;;;;1.90;99.90;;;;;;4989407;28;19918;-82
2023/01/24 15:38:54;;;;;;;;;;;1.90;99.90;;;;;;4988311;28;19910;-80
2023/01/24 15:44:23;;;;;;;;;;;1.90;99.90;;;;;;4996150;28;19929;-81
2023/01/24 15:51:05;;;;;;;;;;;1.80;99.90;;;;;;4970433;28;19920;-83
2023/01/24 15:53:08;;;;;;;;;;;1.90;99.90;;;;;;4996639;28;19902;-80
2023/01/24 15:55:35;;;;;;;;;;;1.90;99.90;;;;;;4998084;28;19918;-78
2023/01/24 15:58:00;;;;;;;;;;;2.00;99.90;;;;;;4981113;28;19926;-80
2023/01/24 16:00:26;;;;;;;;;;;2.00;99.90;;;;;;4998379;28;19922;-81
2023/01/24 16:02:52;;;;;;;;;;;2.00;99.90;;;;;;4978822;28;20473;-79
2023/01/24 16:05:21;;;;;;;;;;;2.10;99.90;;;;;;4989081;28;19933;-82
2023/01/24 16:07:47;;;;;;;;;;;2.10;99.90;;;;;;4963281;28;19917;-82
2023/01/24 16:10:13;;;;;;;;;;;2.10;99.90;;;;;;4983682;28;19910;-82
2023/01/24 16:12:39;;;;;;;;;;;2.10;99.90;;;;;;4967805;28;19946;-82
2023/01/24 16:15:04;;;;;;;;;;;2.10;99.90;;;;;;4988314;28;19921;-81
2023/01/24 16:17:30;;;;;;;;;;;2.10;99.90;;;;;;4987740;28;19910;-81
2023/01/24 16:19:55;;;;;;;;;;;2.10;99.90;;;;;;4969391;28;19914;-80
2023/01/24 16:22:22;;;;;;;;;;;2.10;99.90;;;;;;4965864;28;19914;-82
2023/01/24 16:24:48;;;;;;;;;;;2.10;99.90;;;;;;4965005;28;19948;-81
2023/01/24 16:27:14;;;;;;;;;;;2.10;99.90;;;;;;4982438;28;20367;-81
2023/01/24 16:29:40;;;;;;;;;;;2.10;99.90;;;;;;4992414;28;20009;-81
2023/01/24 16:32:18;;;;;;;;;;;2.10;99.90;;;;;;5001566;28;19917;-81
2023/01/24 16:34:43;;;;;;;;;;;2.10;99.90;;;;;;4971781;28;19914;-81
2023/01/24 16:37:09;;;;;;;;;;;2.20;99.90;;;;;;4990318;28;20401;-81
2023/01/24 16:39:35;;;;;;;;;;;2.20;99.90;;;;;;5000284;28;19953;-81
2023/01/24 16:42:01;;;;;;;;;;;2.20;99.90;;;;;;4983012;28;19910;-81
2023/01/24 16:44:27;;;;;;;;;;;2.20;99.90;;;;;;4990867;28;19914;-81
2023/01/24 16:46:52;;;;;;;;;;;2.20;99.90;;;;;;4963972;28;20009;-80
2023/01/24 16:49:18;;;;;;;;;;;2.20;99.90;;;;;;4962214;28;19911;-81
2023/01/24 16:51:44;;;;;;;;;;;2.10;99.90;;;;;;4961709;28;19918;-82
2023/01/24 16:54:13;;;;;;;;;;;2.20;99.90;;;;;;4983690;28;19942;-81
2023/01/24 16:56:39;;;;;;;;;;;2.20;99.90;;;;;;4990893;28;19910;-82
2023/01/24 16:59:05;;;;;;;;;;;2.10;99.90;;;;;;4969772;28;20352;-81
2023/01/24 17:01:30;;;;;;;;;;;2.20;99.90;;;;;;4971375;28;19914;-84
2023/01/24 17:03:56;;;;;;;;;;;2.20;99.90;;;;;;4963851;28;19918;-82
2023/01/24 17:06:24;;;;;;;;;;;2.20;99.90;;;;;;4981316;28;19910;-82
2023/01/24 17:08:50;;;;;;;;;;;2.20;99.90;;;;;;4964814;28;19910;-82
2023/01/24 17:11:19;;;;;;;;;;;2.20;99.90;;;;;;4962918;28;19987;-82
2023/01/24 17:13:48;;;;;;;;;;;2.20;99.90;;;;;;4981660;28;19922;-81
2023/01/24 17:16:14;;;;;;;;;;;2.20;99.90;;;;;;4966450;28;19973;-84
2023/01/24 17:18:39;;;;;;;;;;;2.20;99.90;;;;;;4988389;28;19914;-79
2023/01/24 17:21:09;;;;;;;;;;;2.20;99.90;;;;;;4971521;28;19914;-80
2023/01/24 17:23:37;;;;;;;;;;;2.10;99.90;;;;;;4980914;28;19925;-80
2023/01/24 17:26:12;;;;;;;;;;;2.20;99.90;;;;;;4980071;28;19918;-82
2023/01/24 17:28:38;;;;;;;;;;;2.20;99.90;;;;;;4980274;28;19949;-82
2023/01/24 17:31:11;;;;;;;;;;;2.20;99.90;;;;;;4979935;28;19914;-81
2023/01/24 17:33:37;;;;;;;;;;;2.20;99.90;;;;;;4978749;28;19918;-81
2023/01/24 17:36:03;;;;;;;;;;;2.20;99.90;;;;;;4962976;28;20009;-81
2023/01/24 17:38:29;;;;;;;;;;;2.20;99.90;;;;;;4980599;28;19911;-83
2023/01/24 17:40:55;;;;;;;;;;;2.20;99.90;;;;;;4980366;28;20008;-82
2023/01/24 17:43:20;;;;;;;;;;;2.20;99.90;;;;;;4979954;28;19910;-81
2023/01/24 17:45:49;;;;;;;;;;;2.20;99.90;;;;;;4980745;28;19961;-82
2023/01/24 17:48:15;;;;;;;;;;;2.10;99.90;;;;;;4963634;28;19914;-82
2023/01/24 17:50:40;;;;;;;;;;;2.10;99.90;;;;;;4962508;28;19933;-82
2023/01/24 17:53:06;;;;;;;;;;;2.20;99.90;;;;;;4961913;28;19918;-82
2023/01/24 17:55:31;;;;;;;;;;;2.20;99.90;;;;;;4977751;28;19933;-82
2023/01/24 17:57:57;;;;;;;;;;;2.20;99.90;;;;;;4979882;28;19917;-82
2023/01/24 18:00:22;;;;;;;;;;;2.10;99.90;;;;;;4973599;28;19918;-82
2023/01/24 18:02:48;;;;;;;;;;;2.10;99.90;;;;;;4990754;28;19933;-81
2023/01/24 18:05:14;;;;;;;;;;;2.10;99.90;;;;;;4990481;28;19929;-81
2023/01/24 18:07:39;;;;;;;;;;;2.10;99.90;;;;;;4971244;28;19910;-81
2023/01/24 18:10:06;;;;;;;;;;;2.20;99.90;;;;;;4984933;28;19914;-81
2023/01/24 18:12:31;;;;;;;;;;;2.20;99.90;;;;;;4981392;28;19924;-81
2023/01/24 18:14:57;;;;;;;;;;;2.20;99.90;;;;;;4980526;28;19949;-81
2023/01/24 18:17:22;;;;;;;;;;;2.20;99.90;;;;;;4981030;28;19970;-81
2023/01/24 18:19:48;;;;;;;;;;;2.10;99.90;;;;;;4962135;28;19917;-80
2023/01/24 18:22:13;;;;;;;;;;;2.10;99.90;;;;;;4962491;28;19914;-81
2023/01/24 18:24:39;;;;;;;;;;;2.20;99.90;;;;;;4980155;28;19910;-81
2023/01/24 18:27:05;;;;;;;;;;;2.10;99.90;;;;;;4963679;28;19917;-81
2023/01/24 18:29:31;;;;;;;;;;;2.20;99.90;;;;;;4982677;28;19997;-82
2023/01/24 18:31:56;;;;;;;;;;;2.20;99.90;;;;;;4987364;28;19932;-80
2023/01/24 18:34:23;;;;;;;;;;;2.20;99.90;;;;;;4998939;28;19898;-80
2023/01/24 18:36:49;;;;;;;;;;;2.20;99.90;;;;;;4991706;28;19940;-81
2023/01/24 18:39:14;;;;;;;;;;;2.20;99.90;;;;;;4988625;28;19949;-81
2023/01/24 18:41:40;;;;;;;;;;;2.10;99.90;;;;;;4993344;28;19914;-80
2023/01/24 18:44:06;;;;;;;;;;;2.20;99.90;;;;;;4989812;28;19915;-80
2023/01/24 18:46:32;;;;;;;;;;;2.20;99.90;;;;;;4990144;28;20040;-80
2023/01/24 18:48:57;;;;;;;;;;;2.20;99.90;;;;;;4989843;28;20001;-79
2023/01/24 18:51:23;;;;;;;;;;;2.20;99.90;;;;;;4968165;28;19961;-80
2023/01/24 18:53:50;;;;;;;;;;;2.20;99.90;;;;;;4993281;28;19977;-80
2023/01/24 18:56:17;;;;;;;;;;;2.20;99.90;;;;;;5001259;28;19984;-80
2023/01/24 18:58:43;;;;;;;;;;;2.20;99.90;;;;;;5000757;28;19934;-80